createdAt,value
2022-11-09T00:01:30.990Z,98259.16
2022-11-09T00:04:01.758Z,98264.39
2022-11-09T00:06:30.804Z,98265.09
2022-11-09T00:09:06.862Z,98265.77
2022-11-09T00:11:38.970Z,98266.13
2022-11-09T00:14:06.853Z,98266.33
2022-11-09T00:16:34.879Z,98267.73
2022-11-09T00:19:02.876Z,98269.99
2022-11-09T00:21:30.847Z,98269.30
2022-11-09T00:23:58.816Z,98270.35
2022-11-09T00:26:26.998Z,98270.02
2022-11-09T00:28:54.948Z,98270.20
2022-11-09T00:31:24.785Z,98263.23
2022-11-09T00:33:55.633Z,98265.16
2022-11-09T00:36:26.099Z,98266.73
2022-11-09T00:38:58.539Z,98265.86
2022-11-09T00:41:27.464Z,98263.45
2022-11-09T00:43:56.636Z,98262.91
2022-11-09T00:46:25.298Z,98262.57
2022-11-09T00:48:56.138Z,98262.20
2022-11-09T00:51:24.711Z,98260.63
2022-11-09T00:53:55.000Z,98259.92
2022-11-09T00:56:24.596Z,98259.40
2022-11-09T00:58:55.837Z,98258.38
2022-11-09T01:01:24.576Z,98255.06
2022-11-09T01:03:52.820Z,98252.63
2022-11-09T01:06:24.106Z,98250.17
2022-11-09T01:08:52.593Z,98253.66
2022-11-09T01:11:23.170Z,98252.27
2022-11-09T01:13:53.985Z,98246.89
2022-11-09T01:16:23.876Z,98244.64
2022-11-09T01:18:56.283Z,98245.16
2022-11-09T01:21:27.477Z,98243.78
2022-11-09T01:23:58.636Z,98240.13
2022-11-09T01:26:29.953Z,98238.92
2022-11-09T01:28:58.102Z,98238.73
2022-11-09T01:31:26.495Z,98237.88
2022-11-09T01:33:55.043Z,98237.71
2022-11-09T01:36:24.309Z,98238.05
2022-11-09T01:38:52.383Z,98237.36
2022-11-09T01:41:25.081Z,98235.44
2022-11-09T01:44:12.917Z,98233.70
2022-11-09T01:46:49.402Z,98235.79
2022-11-09T01:49:43.392Z,98233.70
2022-11-09T01:52:23.765Z,98233.17
2022-11-09T01:55:06.265Z,98232.30
2022-11-09T01:57:40.215Z,98234.57
2022-11-09T02:00:16.061Z,98233.16
2022-11-09T02:02:49.885Z,98236.80
2022-11-09T02:05:22.358Z,98239.43
2022-11-09T02:07:53.296Z,98241.34
2022-11-09T02:10:34.002Z,98239.23
2022-11-09T02:13:03.214Z,98234.56
2022-11-09T02:15:41.381Z,98235.24
2022-11-09T02:18:12.760Z,98235.59
2022-11-09T02:20:46.714Z,98230.89
2022-11-09T02:23:14.960Z,98230.55
2022-11-09T02:26:06.682Z,98228.12
2022-11-09T02:28:36.531Z,98232.29
2022-11-09T02:31:08.152Z,98232.12
2022-11-09T02:34:03.529Z,98232.80
2022-11-09T02:36:33.940Z,98233.50
2022-11-09T02:39:04.076Z,98235.41
2022-11-09T02:41:33.069Z,98235.25
2022-11-09T02:44:02.473Z,98230.20
2022-11-09T02:46:35.976Z,98231.57
2022-11-09T02:49:05.209Z,98229.13
2022-11-09T02:51:33.199Z,98229.11
2022-11-09T02:54:01.488Z,98229.28
2022-11-09T02:56:29.590Z,98225.45
2022-11-09T02:58:57.704Z,98223.87
2022-11-09T03:01:25.672Z,98224.04
2022-11-09T03:03:53.931Z,98220.05
2022-11-09T03:06:34.667Z,98221.80
2022-11-09T03:09:09.885Z,98223.90
2022-11-09T03:11:40.056Z,98226.34
2022-11-09T03:14:10.118Z,98227.38
2022-11-09T03:16:39.407Z,98227.55
2022-11-09T03:19:07.894Z,98231.20
2022-11-09T03:21:35.987Z,98233.45
2022-11-09T03:24:04.255Z,98228.95
2022-11-09T03:26:33.487Z,98229.46
2022-11-09T03:29:01.472Z,98227.88
2022-11-09T03:31:30.731Z,98230.81
2022-11-09T03:33:58.904Z,98235.30
2022-11-09T03:36:26.812Z,98233.73
2022-11-09T03:38:54.710Z,98235.98
2022-11-09T03:41:23.168Z,98236.68
2022-11-09T03:43:51.059Z,98234.79
2022-11-09T03:46:19.208Z,98232.02
2022-11-09T03:48:47.468Z,98229.58
2022-11-09T03:51:15.327Z,98229.06
2022-11-09T03:53:43.169Z,98232.72
2022-11-09T03:56:11.151Z,98232.73
2022-11-09T03:58:38.947Z,98232.92
2022-11-09T04:01:07.117Z,98233.27
2022-11-09T04:03:35.047Z,98232.05
2022-11-09T04:06:03.126Z,98230.13
2022-11-09T04:08:31.119Z,98229.80
2022-11-09T04:10:59.024Z,98229.98
2022-11-09T04:13:26.852Z,98234.14
2022-11-09T04:15:54.735Z,98231.86
2022-11-09T04:18:22.781Z,98230.98
2022-11-09T04:20:51.354Z,98228.88
2022-11-09T04:23:19.998Z,98225.04
2022-11-09T04:25:48.234Z,98225.20
2022-11-09T04:28:19.665Z,98225.02
2022-11-09T04:30:47.567Z,98226.21
2022-11-09T04:33:15.713Z,98227.95
2022-11-09T04:35:44.034Z,98228.61
2022-11-09T04:38:14.057Z,98226.88
2022-11-09T04:40:42.749Z,98227.73
2022-11-09T04:43:13.337Z,98230.00
2022-11-09T04:45:41.972Z,98227.91
2022-11-09T04:48:12.414Z,98225.48
2022-11-09T04:50:40.518Z,98230.02
2022-11-09T04:53:11.234Z,98230.02
2022-11-09T04:55:40.668Z,98227.78
2022-11-09T04:58:09.865Z,98224.48
2022-11-09T05:00:38.069Z,98226.58
2022-11-09T05:03:07.582Z,98229.73
2022-11-09T05:05:37.605Z,98230.08
2022-11-09T05:08:06.968Z,98233.73
2022-11-09T05:10:36.174Z,98231.48
2022-11-09T05:13:09.983Z,98236.00
2022-11-09T05:15:38.251Z,98234.27
2022-11-09T05:18:07.814Z,98232.34
2022-11-09T05:20:36.988Z,98231.64
2022-11-09T05:23:23.878Z,98230.56
2022-11-09T05:25:52.233Z,98233.16
2022-11-09T05:28:20.151Z,98235.77
2022-11-09T05:30:48.116Z,98238.21
2022-11-09T05:33:17.781Z,98238.21
2022-11-09T05:35:46.326Z,98239.61
2022-11-09T05:38:14.404Z,98242.06
2022-11-09T05:40:42.461Z,98245.89
2022-11-09T05:43:10.496Z,98250.59
2022-11-09T05:45:43.840Z,98252.67
2022-11-09T05:48:14.634Z,98251.12
2022-11-09T05:50:44.101Z,98251.64
2022-11-09T05:53:22.802Z,98251.45
2022-11-09T05:55:51.534Z,98253.21
2022-11-09T05:58:19.716Z,98254.79
2022-11-09T06:00:47.979Z,98260.00
2022-11-09T06:03:16.535Z,98265.23
2022-11-09T06:05:45.365Z,98269.58
2022-11-09T06:08:15.601Z,98274.27
2022-11-09T06:10:44.315Z,98276.89
2022-11-09T06:13:12.688Z,98276.52
2022-11-09T06:15:40.921Z,98278.59
2022-11-09T06:18:08.907Z,98286.42
2022-11-09T06:20:36.923Z,98286.95
2022-11-09T06:23:05.244Z,98287.15
2022-11-09T06:25:33.696Z,98286.27
2022-11-09T06:28:02.149Z,98288.02
2022-11-09T06:30:30.616Z,98286.09
2022-11-09T06:33:03.426Z,98293.93
2022-11-09T06:35:31.411Z,98296.03
2022-11-09T06:38:00.412Z,98295.35
2022-11-09T06:40:29.378Z,98295.52
2022-11-09T06:42:59.431Z,98295.00
2022-11-09T06:45:29.295Z,98295.34
2022-11-09T06:47:58.667Z,98292.89
2022-11-09T06:50:28.832Z,98290.80
2022-11-09T06:52:59.043Z,98293.24
2022-11-09T06:55:28.032Z,98292.39
2022-11-09T06:57:56.892Z,98295.70
2022-11-09T07:00:27.132Z,98293.63
2022-11-09T07:02:55.566Z,98295.02
2022-11-09T07:05:24.881Z,98297.48
2022-11-09T07:07:53.008Z,98295.92
2022-11-09T07:10:21.147Z,98296.64
2022-11-09T07:12:49.845Z,98297.19
2022-11-09T07:15:18.734Z,98295.45
2022-11-09T07:17:46.807Z,98295.11
2022-11-09T07:20:15.477Z,98294.61
2022-11-09T07:22:43.667Z,98292.52
2022-11-09T07:25:13.167Z,98292.16
2022-11-09T07:27:41.414Z,98290.95
2022-11-09T07:30:10.412Z,98286.60
2022-11-09T07:33:07.383Z,98285.55
2022-11-09T07:35:28.708Z,98289.02
2022-11-09T07:38:01.885Z,98284.85
2022-11-09T07:40:31.275Z,98289.02
2022-11-09T07:43:01.151Z,98291.29
2022-11-09T07:45:31.122Z,98287.45
2022-11-09T07:48:02.259Z,98286.39
2022-11-09T07:50:32.388Z,98286.73
2022-11-09T07:53:02.133Z,98289.73
2022-11-09T07:55:31.532Z,98290.42
2022-11-09T07:58:02.867Z,98292.48
2022-11-09T08:00:33.975Z,98293.36
2022-11-09T08:03:02.434Z,98291.09
2022-11-09T08:05:30.905Z,98284.63
2022-11-09T08:08:02.531Z,98282.89
2022-11-09T08:10:32.817Z,98283.60
2022-11-09T08:13:04.454Z,98282.23
2022-11-09T08:15:35.479Z,98283.61
2022-11-09T08:18:16.787Z,98285.52
2022-11-09T08:20:45.635Z,98282.73
2022-11-09T08:23:16.071Z,98281.66
2022-11-09T08:25:44.857Z,98281.33
2022-11-09T08:28:15.969Z,98281.68
2022-11-09T08:30:45.299Z,98282.89
2022-11-09T08:33:14.433Z,98283.05
2022-11-09T08:35:42.623Z,98284.59
2022-11-09T08:38:11.187Z,98287.52
2022-11-09T08:40:39.720Z,98287.52
2022-11-09T08:43:11.522Z,98285.61
2022-11-09T08:45:41.211Z,98286.12
2022-11-09T08:48:11.273Z,98284.90
2022-11-09T08:50:39.597Z,98282.99
2022-11-09T08:53:11.602Z,98281.59
2022-11-09T08:55:43.009Z,98280.85
2022-11-09T08:58:14.048Z,98282.40
2022-11-09T09:00:44.740Z,98282.40
2022-11-09T09:03:13.529Z,98278.25
2022-11-09T09:05:41.905Z,98279.27
2022-11-09T09:08:11.832Z,98275.94
2022-11-09T09:10:40.619Z,98278.02
2022-11-09T09:13:09.328Z,98279.73
2022-11-09T09:15:40.200Z,98276.77
2022-11-09T09:18:10.997Z,98270.48
2022-11-09T09:20:41.592Z,98272.23
2022-11-09T09:23:12.950Z,98274.70
2022-11-09T09:25:42.121Z,98274.52
2022-11-09T09:28:11.257Z,98272.79
2022-11-09T09:30:39.604Z,98273.86
2022-11-09T09:33:07.750Z,98272.99
2022-11-09T09:35:35.982Z,98270.23
2022-11-09T09:38:04.060Z,98268.85
2022-11-09T09:40:37.957Z,98266.60
2022-11-09T09:43:06.152Z,98263.82
2022-11-09T09:45:40.502Z,98258.07
2022-11-09T09:48:28.041Z,98260.32
2022-11-09T09:51:04.146Z,98255.07
2022-11-09T09:53:46.995Z,98253.69
2022-11-09T09:56:24.256Z,98253.86
2022-11-09T09:59:05.623Z,98250.37
2022-11-09T10:01:45.003Z,98252.10
2022-11-09T10:04:24.942Z,98248.77
2022-11-09T10:07:33.562Z,98243.02
2022-11-09T10:10:34.283Z,98243.20
2022-11-09T10:13:06.075Z,98242.31
2022-11-09T10:15:47.676Z,98237.95
2022-11-09T10:18:15.965Z,98233.23
2022-11-09T10:21:02.159Z,98232.69
2022-11-09T10:23:56.429Z,98229.04
2022-11-09T10:26:43.355Z,98223.78
2022-11-09T10:29:44.594Z,98223.77
2022-11-09T10:32:21.018Z,98222.91
2022-11-09T10:35:03.288Z,98223.08
2022-11-09T10:37:39.252Z,98222.73
2022-11-09T10:40:25.487Z,98221.90
2022-11-09T10:43:13.918Z,98222.48
2022-11-09T10:46:07.295Z,98221.48
2022-11-09T10:48:55.823Z,98225.31
2022-11-09T10:51:48.088Z,98221.52
2022-11-09T10:54:38.377Z,98220.64
2022-11-09T10:57:26.059Z,98220.09
2022-11-09T11:00:19.395Z,98217.65
2022-11-09T11:03:17.989Z,98211.38
2022-11-09T11:06:08.204Z,98208.42
2022-11-09T11:09:02.135Z,98205.63
2022-11-09T11:11:49.341Z,98203.35
2022-11-09T11:14:43.167Z,98205.59
2022-11-09T11:17:37.293Z,98202.09
2022-11-09T11:20:34.925Z,98204.18
2022-11-09T11:23:25.212Z,98201.73
2022-11-09T11:26:24.062Z,98198.42
2022-11-09T11:29:40.246Z,98201.02
2022-11-09T11:32:27.759Z,98198.56
2022-11-09T11:35:33.561Z,98197.14
2022-11-09T11:38:36.150Z,98194.15
2022-11-09T11:41:38.504Z,98194.48
2022-11-09T11:44:53.525Z,98189.79
2022-11-09T11:47:55.440Z,98187.00
2022-11-09T11:51:16.365Z,98185.23
2022-11-09T11:54:14.078Z,98182.94
2022-11-09T11:57:26.777Z,98183.29
2022-11-09T12:00:18.346Z,98183.11
2022-11-09T12:03:38.433Z,98179.96
2022-11-09T12:06:31.706Z,98171.74
2022-11-09T12:09:59.977Z,98170.01
2022-11-09T12:12:59.031Z,98171.90
2022-11-09T12:16:04.533Z,98174.71
2022-11-09T12:19:26.289Z,98169.35
2022-11-09T12:22:50.873Z,98166.76
2022-11-09T12:26:16.992Z,98160.65
2022-11-09T12:29:28.550Z,98156.77
2022-11-09T12:32:41.812Z,98155.34
2022-11-09T12:35:48.515Z,98154.86
2022-11-09T12:38:51.383Z,98157.13
2022-11-09T12:41:39.691Z,98155.00
2022-11-09T12:44:35.006Z,98153.60
2022-11-09T12:47:29.833Z,98149.93
2022-11-09T12:50:19.866Z,98145.77
2022-11-09T12:53:08.301Z,98141.98
2022-11-09T12:56:04.683Z,98141.27
2022-11-09T12:58:52.022Z,98137.48
2022-11-09T13:01:39.139Z,98138.37
2022-11-09T13:04:27.555Z,98138.88
2022-11-09T13:07:14.853Z,98139.38
2022-11-09T13:10:02.931Z,98143.85
2022-11-09T13:12:49.788Z,98143.66
2022-11-09T13:15:38.226Z,98142.25
2022-11-09T13:18:35.231Z,98133.56
2022-11-09T13:21:22.692Z,98136.01
2022-11-09T13:24:31.489Z,98146.44
2022-11-09T13:27:47.288Z,98142.14
2022-11-09T13:30:41.397Z,98140.66
2022-11-09T13:33:39.706Z,98140.89
2022-11-09T13:36:26.539Z,98145.95
2022-11-09T13:39:31.413Z,98143.66
2022-11-09T13:42:32.071Z,98142.11
2022-11-09T13:45:26.645Z,98141.45
2022-11-09T13:48:35.415Z,98136.80
2022-11-09T13:51:37.233Z,98140.29
2022-11-09T13:54:36.241Z,98140.16
2022-11-09T13:57:24.926Z,98142.27
2022-11-09T14:00:25.642Z,98143.83
2022-11-09T14:03:26.432Z,98145.42
2022-11-09T14:06:13.846Z,98149.11
2022-11-09T14:09:02.386Z,98147.52
2022-11-09T14:12:09.063Z,98143.88
2022-11-09T14:15:23.203Z,98147.36
2022-11-09T14:18:22.235Z,98148.77
2022-11-09T14:21:32.853Z,98151.38
2022-11-09T14:24:21.438Z,98149.11
2022-11-09T14:27:11.279Z,98148.23
2022-11-09T14:30:02.628Z,98148.56
2022-11-09T14:32:52.084Z,98148.20
2022-11-09T14:35:40.823Z,98139.84
2022-11-09T14:38:33.994Z,98137.38
2022-11-09T14:41:25.829Z,98134.41
2022-11-09T14:44:34.290Z,98131.58
2022-11-09T14:47:31.538Z,98133.64
2022-11-09T14:50:32.637Z,98133.98
2022-11-09T14:53:42.266Z,98132.21
2022-11-09T14:56:35.444Z,98128.20
2022-11-09T14:59:33.934Z,98133.63
2022-11-09T15:02:26.501Z,98136.94
2022-11-09T15:05:42.628Z,98137.64
2022-11-09T15:08:31.554Z,98135.02
2022-11-09T15:11:33.751Z,98137.98
2022-11-09T15:14:34.432Z,98137.48
2022-11-09T15:17:37.968Z,98137.69
2022-11-09T15:20:40.772Z,98137.55
2022-11-09T15:23:41.393Z,98134.27
2022-11-09T15:26:37.624Z,98135.66
2022-11-09T15:29:40.132Z,98134.96
2022-11-09T15:32:27.126Z,98133.23
2022-11-09T15:35:18.087Z,98135.30
2022-11-09T15:38:05.364Z,98131.25
2022-11-09T15:40:52.433Z,98132.45
2022-11-09T15:43:39.369Z,98133.48
2022-11-09T15:46:39.316Z,98135.05
2022-11-09T15:49:28.753Z,98134.52
2022-11-09T15:52:16.319Z,98135.73
2022-11-09T15:55:04.215Z,98134.84
2022-11-09T15:57:52.730Z,98132.26
2022-11-09T16:00:40.948Z,98134.35
2022-11-09T16:03:28.681Z,98132.95
2022-11-09T16:06:23.761Z,98131.38
2022-11-09T16:09:11.000Z,98132.77
2022-11-09T16:11:58.800Z,98134.18
2022-11-09T16:14:45.810Z,98138.40
2022-11-09T16:17:32.718Z,98137.06
2022-11-09T16:20:20.946Z,98133.81
2022-11-09T16:23:09.269Z,98133.83
2022-11-09T16:25:56.891Z,98138.55
2022-11-09T16:28:45.154Z,98134.19
2022-11-09T16:34:38.652Z,98136.30
2022-11-09T16:37:25.360Z,98144.30
2022-11-09T16:40:16.236Z,98148.11
2022-11-09T16:43:03.546Z,98150.02
2022-11-09T16:45:50.714Z,98148.39
2022-11-09T16:48:38.504Z,98147.88
2022-11-09T16:51:25.688Z,98145.44
2022-11-09T16:54:13.002Z,98149.77
2022-11-09T16:57:01.225Z,98152.37
2022-11-09T16:59:48.531Z,98155.13
2022-11-09T17:02:35.847Z,98157.02
2022-11-09T17:05:23.044Z,98154.40
2022-11-09T17:08:10.980Z,98152.65
2022-11-09T17:10:57.883Z,98154.23
2022-11-09T17:13:44.940Z,98149.95
2022-11-09T17:16:32.087Z,98149.29
2022-11-09T17:19:20.036Z,98147.21
2022-11-09T17:22:07.728Z,98143.23
2022-11-09T17:24:54.933Z,98146.02
2022-11-09T17:27:41.636Z,98145.31
2022-11-09T17:30:28.647Z,98147.92
2022-11-09T17:33:15.614Z,98150.73
2022-11-09T17:36:08.001Z,98148.14
2022-11-09T17:38:54.862Z,98147.10
2022-11-09T17:41:42.861Z,98146.42
2022-11-09T17:44:29.640Z,98145.23
2022-11-09T17:47:17.037Z,98146.98
2022-11-09T17:50:05.372Z,98147.16
2022-11-09T17:52:52.722Z,98147.34
2022-11-09T17:55:40.454Z,98152.04
2022-11-09T17:58:27.595Z,98150.98
2022-11-09T18:01:17.679Z,98152.52
2022-11-09T18:04:09.730Z,98154.60
2022-11-09T18:06:56.455Z,98154.96
2022-11-09T18:09:43.196Z,98150.27
2022-11-09T18:12:30.017Z,98147.85
2022-11-09T18:15:18.079Z,98146.98
2022-11-09T18:18:07.125Z,98148.05
2022-11-09T18:20:54.290Z,98147.89
2022-11-09T18:23:41.281Z,98143.38
2022-11-09T18:26:28.234Z,98140.75
2022-11-09T18:29:15.194Z,98141.45
2022-11-09T18:32:02.348Z,98141.28
2022-11-09T18:34:49.209Z,98143.37
2022-11-09T18:37:37.626Z,98142.67
2022-11-09T18:40:24.272Z,98143.54
2022-11-09T18:43:10.765Z,98146.31
2022-11-09T18:46:00.006Z,98147.02
2022-11-09T18:48:51.111Z,98148.92
2022-11-09T18:51:37.473Z,98146.16
2022-11-09T18:54:24.226Z,98143.91
2022-11-09T18:57:15.924Z,98140.25
2022-11-09T19:00:06.258Z,98142.16
2022-11-09T19:02:53.569Z,98138.35
2022-11-09T19:05:43.321Z,98142.87
2022-11-09T19:08:48.275Z,98145.52
2022-11-09T19:11:35.070Z,98148.12
2022-11-09T19:14:21.840Z,98153.17
2022-11-09T19:17:14.879Z,98157.17
2022-11-09T19:20:01.317Z,98155.45
2022-11-09T19:22:48.858Z,98157.69
2022-11-09T19:25:36.323Z,98159.78
2022-11-09T19:28:23.789Z,98160.45
2022-11-09T19:31:20.289Z,98162.88
2022-11-09T19:34:06.616Z,98167.92
2022-11-09T19:36:53.222Z,98167.39
2022-11-09T19:39:43.272Z,98169.13
2022-11-09T19:42:30.622Z,98167.39
2022-11-09T19:45:17.570Z,98172.07
2022-11-09T19:48:04.383Z,98172.07
2022-11-09T19:50:53.008Z,98170.85
2022-11-09T19:53:42.589Z,98176.23
2022-11-09T19:56:31.739Z,98175.02
2022-11-09T19:59:18.325Z,98176.77
2022-11-09T20:02:04.525Z,98176.23
2022-11-09T20:04:52.417Z,98176.58
2022-11-09T20:07:39.475Z,98173.98
2022-11-09T20:10:26.385Z,98168.41
2022-11-09T20:13:12.937Z,98172.58
2022-11-09T20:16:08.397Z,98169.45
2022-11-09T20:18:54.971Z,98166.84
2022-11-09T20:21:42.111Z,98164.05
2022-11-09T20:24:30.959Z,98169.77
2022-11-09T20:27:20.066Z,98173.23
2022-11-09T20:30:09.392Z,98174.25
2022-11-09T20:32:58.466Z,98174.44
2022-11-09T20:35:52.957Z,98173.91
2022-11-09T20:38:40.473Z,98172.85
2022-11-09T20:41:27.080Z,98178.08
2022-11-09T20:44:13.746Z,98180.67
2022-11-09T20:47:00.410Z,98178.07
2022-11-09T20:49:50.214Z,98179.46
2022-11-09T20:52:36.901Z,98175.45
2022-11-09T20:55:25.700Z,98175.63
2022-11-09T20:58:14.249Z,98178.58
2022-11-09T21:01:06.836Z,98179.45
2022-11-09T21:03:54.092Z,98182.02
2022-11-09T21:06:42.017Z,98177.50
2022-11-09T21:09:29.827Z,98175.44
2022-11-09T21:12:25.190Z,98172.50
2022-11-09T21:15:15.517Z,98173.38
2022-11-09T21:18:02.409Z,98175.48
2022-11-09T21:20:49.185Z,98177.91
2022-11-09T21:23:55.966Z,98178.44
2022-11-09T21:27:17.631Z,98174.77
2022-11-09T21:30:07.328Z,98176.64
2022-11-09T21:32:55.052Z,98178.73
2022-11-09T21:35:41.705Z,98177.52
2022-11-09T21:38:33.425Z,98176.48
2022-11-09T21:41:38.717Z,98180.30
2022-11-09T21:44:30.074Z,98180.27
2022-11-09T21:47:17.562Z,98178.54
2022-11-09T21:50:09.695Z,98182.34
2022-11-09T21:53:04.505Z,98183.38
2022-11-09T21:55:51.736Z,98183.71
2022-11-09T21:58:39.097Z,98187.30
2022-11-09T22:01:26.814Z,98185.54
2022-11-09T22:04:13.903Z,98180.73
2022-11-09T22:07:00.585Z,98181.80
2022-11-09T22:10:09.416Z,98180.46
2022-11-09T22:13:16.151Z,98182.76
2022-11-09T22:16:07.167Z,98185.05
2022-11-09T22:19:12.985Z,98182.80
2022-11-09T22:21:59.532Z,98186.27
2022-11-09T22:24:46.226Z,98185.39
2022-11-09T22:27:33.298Z,98181.23
2022-11-09T22:30:20.649Z,98184.88
2022-11-09T22:33:07.695Z,98187.61
2022-11-09T22:36:00.221Z,98184.62
2022-11-09T22:38:47.240Z,98182.35
2022-11-09T22:41:33.654Z,98187.70
2022-11-09T22:44:20.367Z,98192.79
2022-11-09T22:47:07.118Z,98189.56
2022-11-09T22:49:53.900Z,98197.68
2022-11-09T22:52:40.707Z,98198.33
2022-11-09T22:55:27.453Z,98200.58
2022-11-09T22:58:14.478Z,98204.20
2022-11-09T23:01:11.069Z,98204.19
2022-11-09T23:03:58.167Z,98206.02
2022-11-09T23:06:45.005Z,98209.63
2022-11-09T23:09:31.363Z,98207.53
2022-11-09T23:12:18.115Z,98210.15
2022-11-09T23:15:04.967Z,98211.55
2022-11-09T23:18:15.078Z,98210.33
2022-11-09T23:21:01.544Z,98213.45
2022-11-09T23:23:48.938Z,98212.58
2022-11-09T23:26:35.261Z,98212.44
2022-11-09T23:29:21.645Z,98211.44
2022-11-09T23:32:08.679Z,98213.89
2022-11-09T23:34:55.429Z,98214.36
2022-11-09T23:37:42.183Z,98213.08
2022-11-09T23:40:30.010Z,98215.27
2022-11-09T23:43:17.379Z,98214.40
2022-11-09T23:46:06.858Z,98216.33
2022-11-09T23:48:53.060Z,98218.63
2022-11-09T23:51:39.531Z,98217.98
2022-11-09T23:54:26.483Z,98216.45
2022-11-09T23:57:13.236Z,98216.34
2022-11-09T23:59:59.947Z,98215.70
